Terminal Aerodrome Forecast
Issued by NWS

Home | Current Version | Previous Version | Text Only | Print | Product List | Glossary On
Versions: 1 2 3 4 5 6 7 8 9 10 11 12 13 14
000
FTAK31 PAFA 291733
TAFAUN
TAF
PAUN 291733Z 2918/3018 21010G15KT 6SM -RA FEW008 OVC015=

USA.gov is the U.S. government's official web portal to all federal, state and local government web resources and services.